sensor_id;sensor_type;location;lat;lon;timestamp;P1;durP1;ratioP1;P2;durP2;ratioP2
73382;SDS011;61600;48.126;11.542;2024-02-21T00:01:49;7.45;;;1.33;;
73382;SDS011;61600;48.126;11.542;2024-02-21T00:04:15;5.15;;;1.38;;
73382;SDS011;61600;48.126;11.542;2024-02-21T00:06:41;4.90;;;1.40;;
73382;SDS011;61600;48.126;11.542;2024-02-21T00:09:08;6.03;;;1.58;;
73382;SDS011;61600;48.126;11.542;2024-02-21T00:11:35;3.08;;;1.75;;
73382;SDS011;61600;48.126;11.542;2024-02-21T00:14:00;4.15;;;1.10;;
73382;SDS011;61600;48.126;11.542;2024-02-21T00:16:27;4.90;;;1.40;;
73382;SDS011;61600;48.126;11.542;2024-02-21T00:18:52;5.53;;;1.30;;
73382;SDS011;61600;48.126;11.542;2024-02-21T00:21:19;5.43;;;1.50;;
73382;SDS011;61600;48.126;11.542;2024-02-21T00:23:45;7.47;;;1.92;;
73382;SDS011;61600;48.126;11.542;2024-02-21T00:26:15;5.75;;;1.10;;
73382;SDS011;61600;48.126;11.542;2024-02-21T00:28:44;3.58;;;1.23;;
73382;SDS011;61600;48.126;11.542;2024-02-21T00:31:10;4.28;;;1.20;;
73382;SDS011;61600;48.126;11.542;2024-02-21T00:33:36;4.63;;;1.50;;
73382;SDS011;61600;48.126;11.542;2024-02-21T00:36:03;6.28;;;1.30;;
73382;SDS011;61600;48.126;11.542;2024-02-21T00:40:56;7.40;;;1.55;;
73382;SDS011;61600;48.126;11.542;2024-02-21T00:43:21;3.75;;;1.30;;
73382;SDS011;61600;48.126;11.542;2024-02-21T00:45:49;3.33;;;1.27;;
73382;SDS011;61600;48.126;11.542;2024-02-21T00:48:18;4.55;;;1.17;;
73382;SDS011;61600;48.126;11.542;2024-02-21T00:50:44;6.35;;;2.13;;
73382;SDS011;61600;48.126;11.542;2024-02-21T00:53:09;5.72;;;1.20;;
73382;SDS011;61600;48.126;11.542;2024-02-21T00:55:35;3.13;;;1.30;;
73382;SDS011;61600;48.126;11.542;2024-02-21T00:58:02;3.58;;;1.02;;
73382;SDS011;61600;48.126;11.542;2024-02-21T01:00:28;5.38;;;1.40;;
73382;SDS011;61600;48.126;11.542;2024-02-21T01:02:54;3.67;;;1.27;;
73382;SDS011;61600;48.126;11.542;2024-02-21T01:05:22;2.30;;;1.25;;
73382;SDS011;61600;48.126;11.542;2024-02-21T01:07:48;3.45;;;1.40;;
73382;SDS011;61600;48.126;11.542;2024-02-21T01:10:13;2.47;;;1.05;;
73382;SDS011;61600;48.126;11.542;2024-02-21T01:12:39;3.28;;;1.10;;
73382;SDS011;61600;48.126;11.542;2024-02-21T01:15:04;4.75;;;1.63;;
73382;SDS011;61600;48.126;11.542;2024-02-21T01:17:30;4.65;;;1.40;;
73382;SDS011;61600;48.126;11.542;2024-02-21T01:19:58;5.10;;;1.30;;
73382;SDS011;61600;48.126;11.542;2024-02-21T01:22:24;6.07;;;1.20;;
73382;SDS011;61600;48.126;11.542;2024-02-21T01:24:50;3.15;;;1.10;;
73382;SDS011;61600;48.126;11.542;2024-02-21T01:27:15;3.58;;;1.00;;
73382;SDS011;61600;48.126;11.542;2024-02-21T01:29:41;4.97;;;1.85;;
73382;SDS011;61600;48.126;11.542;2024-02-21T01:32:08;3.20;;;1.20;;
73382;SDS011;61600;48.126;11.542;2024-02-21T01:34:34;2.35;;;1.02;;
73382;SDS011;61600;48.126;11.542;2024-02-21T01:37:00;4.10;;;1.10;;
73382;SDS011;61600;48.126;11.542;2024-02-21T01:39:29;1.85;;;0.88;;
73382;SDS011;61600;48.126;11.542;2024-02-21T01:41:55;6.25;;;1.13;;
73382;SDS011;61600;48.126;11.542;2024-02-21T01:44:20;2.33;;;1.05;;
73382;SDS011;61600;48.126;11.542;2024-02-21T01:46:46;2.85;;;1.08;;
73382;SDS011;61600;48.126;11.542;2024-02-21T01:49:12;3.10;;;1.20;;
73382;SDS011;61600;48.126;11.542;2024-02-21T01:51:37;3.55;;;1.00;;
73382;SDS011;61600;48.126;11.542;2024-02-21T01:54:04;5.03;;;1.00;;
73382;SDS011;61600;48.126;11.542;2024-02-21T01:56:30;2.15;;;0.90;;
73382;SDS011;61600;48.126;11.542;2024-02-21T01:58:56;5.55;;;1.58;;
73382;SDS011;61600;48.126;11.542;2024-02-21T02:01:22;1.20;;;0.80;;
73382;SDS011;61600;48.126;11.542;2024-02-21T02:03:48;2.53;;;1.10;;
73382;SDS011;61600;48.126;11.542;2024-02-21T02:06:14;2.20;;;1.02;;
73382;SDS011;61600;48.126;11.542;2024-02-21T02:08:39;2.22;;;1.10;;
73382;SDS011;61600;48.126;11.542;2024-02-21T02:11:05;2.10;;;0.98;;
73382;SDS011;61600;48.126;11.542;2024-02-21T02:13:32;2.03;;;0.90;;
73382;SDS011;61600;48.126;11.542;2024-02-21T02:15:58;3.13;;;1.23;;
73382;SDS011;61600;48.126;11.542;2024-02-21T02:18:23;3.10;;;1.10;;
73382;SDS011;61600;48.126;11.542;2024-02-21T02:20:49;4.60;;;1.40;;
73382;SDS011;61600;48.126;11.542;2024-02-21T02:23:22;4.18;;;1.08;;
73382;SDS011;61600;48.126;11.542;2024-02-21T02:25:48;2.97;;;1.10;;
73382;SDS011;61600;48.126;11.542;2024-02-21T02:28:16;2.78;;;1.10;;
73382;SDS011;61600;48.126;11.542;2024-02-21T02:30:42;2.17;;;1.05;;
73382;SDS011;61600;48.126;11.542;2024-02-21T02:33:08;2.72;;;1.13;;
73382;SDS011;61600;48.126;11.542;2024-02-21T02:35:34;2.00;;;0.90;;
73382;SDS011;61600;48.126;11.542;2024-02-21T02:38:01;2.22;;;0.93;;
73382;SDS011;61600;48.126;11.542;2024-02-21T02:40:28;3.00;;;1.00;;
73382;SDS011;61600;48.126;11.542;2024-02-21T02:42:54;1.98;;;0.65;;
73382;SDS011;61600;48.126;11.542;2024-02-21T02:45:22;1.67;;;0.82;;
73382;SDS011;61600;48.126;11.542;2024-02-21T02:47:50;4.80;;;1.10;;
73382;SDS011;61600;48.126;11.542;2024-02-21T02:50:16;1.95;;;0.95;;
73382;SDS011;61600;48.126;11.542;2024-02-21T02:52:42;2.83;;;1.05;;
73382;SDS011;61600;48.126;11.542;2024-02-21T02:55:09;3.10;;;0.80;;
73382;SDS011;61600;48.126;11.542;2024-02-21T02:57:34;2.38;;;1.13;;
73382;SDS011;61600;48.126;11.542;2024-02-21T03:00:00;1.45;;;0.70;;
73382;SDS011;61600;48.126;11.542;2024-02-21T03:02:26;5.35;;;1.00;;
73382;SDS011;61600;48.126;11.542;2024-02-21T03:04:52;3.28;;;0.82;;
73382;SDS011;61600;48.126;11.542;2024-02-21T03:07:19;3.30;;;0.90;;
73382;SDS011;61600;48.126;11.542;2024-02-21T03:09:46;2.83;;;0.90;;
73382;SDS011;61600;48.126;11.542;2024-02-21T03:12:13;2.33;;;0.80;;
73382;SDS011;61600;48.126;11.542;2024-02-21T03:14:44;2.75;;;0.88;;
73382;SDS011;61600;48.126;11.542;2024-02-21T03:17:10;5.43;;;1.13;;
73382;SDS011;61600;48.126;11.542;2024-02-21T03:19:35;4.13;;;1.00;;
73382;SDS011;61600;48.126;11.542;2024-02-21T03:22:01;1.38;;;0.70;;
73382;SDS011;61600;48.126;11.542;2024-02-21T03:24:27;2.35;;;0.60;;
73382;SDS011;61600;48.126;11.542;2024-02-21T03:26:55;3.08;;;1.00;;
73382;SDS011;61600;48.126;11.542;2024-02-21T03:29:21;1.73;;;0.90;;
73382;SDS011;61600;48.126;11.542;2024-02-21T03:31:47;4.65;;;1.10;;
73382;SDS011;61600;48.126;11.542;2024-02-21T03:34:12;1.38;;;0.70;;
73382;SDS011;61600;48.126;11.542;2024-02-21T03:36:38;2.03;;;0.80;;
73382;SDS011;61600;48.126;11.542;2024-02-21T03:39:05;1.77;;;0.82;;
73382;SDS011;61600;48.126;11.542;2024-02-21T03:41:33;2.15;;;0.77;;
73382;SDS011;61600;48.126;11.542;2024-02-21T03:43:58;1.08;;;0.65;;
73382;SDS011;61600;48.126;11.542;2024-02-21T03:46:25;1.98;;;0.70;;
73382;SDS011;61600;48.126;11.542;2024-02-21T03:48:50;3.70;;;1.15;;
73382;SDS011;61600;48.126;11.542;2024-02-21T03:51:16;3.95;;;0.85;;
73382;SDS011;61600;48.126;11.542;2024-02-21T03:53:41;2.92;;;0.90;;
73382;SDS011;61600;48.126;11.542;2024-02-21T03:56:07;2.08;;;0.90;;
73382;SDS011;61600;48.126;11.542;2024-02-21T03:58:33;1.27;;;0.73;;
73382;SDS011;61600;48.126;11.542;2024-02-21T04:01:02;1.38;;;0.70;;
73382;SDS011;61600;48.126;11.542;2024-02-21T04:03:29;3.47;;;0.90;;
73382;SDS011;61600;48.126;11.542;2024-02-21T04:05:56;2.92;;;0.80;;
73382;SDS011;61600;48.126;11.542;2024-02-21T04:08:22;2.95;;;0.90;;
73382;SDS011;61600;48.126;11.542;2024-02-21T04:10:48;3.50;;;0.93;;
73382;SDS011;61600;48.126;11.542;2024-02-21T04:13:14;1.38;;;0.70;;
73382;SDS011;61600;48.126;11.542;2024-02-21T04:15:39;1.77;;;0.70;;
73382;SDS011;61600;48.126;11.542;2024-02-21T04:18:05;3.72;;;0.80;;
73382;SDS011;61600;48.126;11.542;2024-02-21T04:20:31;1.20;;;0.57;;
73382;SDS011;61600;48.126;11.542;2024-02-21T04:22:57;1.92;;;0.75;;
73382;SDS011;61600;48.126;11.542;2024-02-21T04:25:23;1.50;;;0.57;;
73382;SDS011;61600;48.126;11.542;2024-02-21T04:27:49;2.13;;;0.80;;
73382;SDS011;61600;48.126;11.542;2024-02-21T04:30:14;2.22;;;0.60;;
73382;SDS011;61600;48.126;11.542;2024-02-21T04:32:41;4.57;;;0.93;;
73382;SDS011;61600;48.126;11.542;2024-02-21T04:35:08;2.40;;;0.63;;
73382;SDS011;61600;48.126;11.542;2024-02-21T04:37:33;1.50;;;0.80;;
73382;SDS011;61600;48.126;11.542;2024-02-21T04:39:59;4.22;;;1.25;;
73382;SDS011;61600;48.126;11.542;2024-02-21T04:42:25;2.42;;;0.95;;
73382;SDS011;61600;48.126;11.542;2024-02-21T04:44:51;3.35;;;1.20;;
73382;SDS011;61600;48.126;11.542;2024-02-21T04:47:18;3.60;;;0.68;;
73382;SDS011;61600;48.126;11.542;2024-02-21T04:49:45;2.33;;;0.80;;
73382;SDS011;61600;48.126;11.542;2024-02-21T04:52:11;1.45;;;0.70;;
73382;SDS011;61600;48.126;11.542;2024-02-21T04:54:37;3.08;;;0.95;;
73382;SDS011;61600;48.126;11.542;2024-02-21T04:57:08;1.85;;;0.80;;
73382;SDS011;61600;48.126;11.542;2024-02-21T04:59:35;3.55;;;1.00;;
73382;SDS011;61600;48.126;11.542;2024-02-21T05:02:01;2.38;;;0.88;;
73382;SDS011;61600;48.126;11.542;2024-02-21T05:04:27;1.10;;;0.70;;
73382;SDS011;61600;48.126;11.542;2024-02-21T05:06:53;1.02;;;0.60;;
73382;SDS011;61600;48.126;11.542;2024-02-21T05:09:19;3.90;;;0.75;;
73382;SDS011;61600;48.126;11.542;2024-02-21T05:11:45;2.28;;;0.60;;
73382;SDS011;61600;48.126;11.542;2024-02-21T05:14:10;1.17;;;0.63;;
73382;SDS011;61600;48.126;11.542;2024-02-21T05:16:36;2.30;;;0.73;;
73382;SDS011;61600;48.126;11.542;2024-02-21T05:19:05;4.10;;;0.80;;
73382;SDS011;61600;48.126;11.542;2024-02-21T05:21:32;1.35;;;0.90;;
73382;SDS011;61600;48.126;11.542;2024-02-21T05:23:58;1.35;;;0.77;;
73382;SDS011;61600;48.126;11.542;2024-02-21T05:26:25;1.77;;;0.90;;
73382;SDS011;61600;48.126;11.542;2024-02-21T05:28:52;2.05;;;1.00;;
73382;SDS011;61600;48.126;11.542;2024-02-21T05:31:19;2.70;;;0.80;;
73382;SDS011;61600;48.126;11.542;2024-02-21T05:33:45;2.10;;;0.82;;
73382;SDS011;61600;48.126;11.542;2024-02-21T05:36:11;1.92;;;0.90;;
73382;SDS011;61600;48.126;11.542;2024-02-21T05:38:37;1.65;;;0.88;;
73382;SDS011;61600;48.126;11.542;2024-02-21T05:41:03;1.30;;;0.70;;
73382;SDS011;61600;48.126;11.542;2024-02-21T05:43:30;3.05;;;1.15;;
73382;SDS011;61600;48.126;11.542;2024-02-21T05:45:55;2.03;;;0.85;;
73382;SDS011;61600;48.126;11.542;2024-02-21T05:48:21;2.22;;;1.08;;
73382;SDS011;61600;48.126;11.542;2024-02-21T05:50:48;2.45;;;1.00;;
73382;SDS011;61600;48.126;11.542;2024-02-21T05:53:14;1.27;;;0.65;;
73382;SDS011;61600;48.126;11.542;2024-02-21T05:55:40;3.55;;;0.90;;
73382;SDS011;61600;48.126;11.542;2024-02-21T05:58:06;4.03;;;1.30;;
73382;SDS011;61600;48.126;11.542;2024-02-21T06:00:32;4.22;;;0.73;;
73382;SDS011;61600;48.126;11.542;2024-02-21T06:02:59;2.42;;;0.95;;
73382;SDS011;61600;48.126;11.542;2024-02-21T06:05:27;1.75;;;0.70;;
73382;SDS011;61600;48.126;11.542;2024-02-21T06:07:54;2.08;;;0.77;;
73382;SDS011;61600;48.126;11.542;2024-02-21T06:10:20;1.73;;;0.80;;
73382;SDS011;61600;48.126;11.542;2024-02-21T06:12:47;2.97;;;0.90;;
73382;SDS011;61600;48.126;11.542;2024-02-21T06:15:13;2.63;;;0.95;;
73382;SDS011;61600;48.126;11.542;2024-02-21T06:17:39;3.22;;;1.00;;
73382;SDS011;61600;48.126;11.542;2024-02-21T06:20:05;2.92;;;1.30;;
73382;SDS011;61600;48.126;11.542;2024-02-21T06:22:34;2.85;;;0.90;;
73382;SDS011;61600;48.126;11.542;2024-02-21T06:25:00;2.28;;;0.77;;
73382;SDS011;61600;48.126;11.542;2024-02-21T06:27:27;3.65;;;0.93;;
73382;SDS011;61600;48.126;11.542;2024-02-21T06:29:53;1.60;;;0.80;;
73382;SDS011;61600;48.126;11.542;2024-02-21T06:32:18;1.42;;;0.77;;
73382;SDS011;61600;48.126;11.542;2024-02-21T06:34:44;2.05;;;0.90;;
73382;SDS011;61600;48.126;11.542;2024-02-21T06:37:10;2.05;;;0.80;;
73382;SDS011;61600;48.126;11.542;2024-02-21T06:39:37;2.78;;;1.17;;
73382;SDS011;61600;48.126;11.542;2024-02-21T06:42:05;2.97;;;0.98;;
73382;SDS011;61600;48.126;11.542;2024-02-21T06:44:30;1.45;;;0.80;;
73382;SDS011;61600;48.126;11.542;2024-02-21T06:46:57;4.50;;;0.90;;
73382;SDS011;61600;48.126;11.542;2024-02-21T06:49:24;2.72;;;0.80;;
73382;SDS011;61600;48.126;11.542;2024-02-21T06:51:49;1.55;;;0.65;;
73382;SDS011;61600;48.126;11.542;2024-02-21T06:54:17;3.15;;;1.52;;
73382;SDS011;61600;48.126;11.542;2024-02-21T06:56:44;1.65;;;0.90;;
73382;SDS011;61600;48.126;11.542;2024-02-21T06:59:13;2.25;;;0.77;;
73382;SDS011;61600;48.126;11.542;2024-02-21T07:01:47;3.70;;;1.25;;
73382;SDS011;61600;48.126;11.542;2024-02-21T07:04:13;2.88;;;0.70;;
73382;SDS011;61600;48.126;11.542;2024-02-21T07:06:40;3.67;;;0.70;;
73382;SDS011;61600;48.126;11.542;2024-02-21T07:09:06;1.65;;;0.80;;
73382;SDS011;61600;48.126;11.542;2024-02-21T07:11:32;5.40;;;1.00;;
73382;SDS011;61600;48.126;11.542;2024-02-21T07:13:59;1.60;;;0.88;;
73382;SDS011;61600;48.126;11.542;2024-02-21T07:16:24;4.07;;;1.00;;
73382;SDS011;61600;48.126;11.542;2024-02-21T07:18:57;1.95;;;0.80;;
73382;SDS011;61600;48.126;11.542;2024-02-21T07:21:24;1.88;;;0.82;;
73382;SDS011;61600;48.126;11.542;2024-02-21T07:23:50;2.60;;;1.05;;
73382;SDS011;61600;48.126;11.542;2024-02-21T07:26:16;3.17;;;0.77;;
73382;SDS011;61600;48.126;11.542;2024-02-21T07:28:42;3.72;;;0.80;;
73382;SDS011;61600;48.126;11.542;2024-02-21T07:31:08;1.58;;;0.50;;
73382;SDS011;61600;48.126;11.542;2024-02-21T07:33:33;3.30;;;0.90;;
73382;SDS011;61600;48.126;11.542;2024-02-21T07:36:01;3.22;;;0.88;;
73382;SDS011;61600;48.126;11.542;2024-02-21T07:38:26;2.20;;;0.90;;
73382;SDS011;61600;48.126;11.542;2024-02-21T07:40:52;3.85;;;1.20;;
73382;SDS011;61600;48.126;11.542;2024-02-21T07:43:19;3.60;;;1.58;;
73382;SDS011;61600;48.126;11.542;2024-02-21T07:45:48;5.05;;;0.93;;
73382;SDS011;61600;48.126;11.542;2024-02-21T07:48:13;4.22;;;0.65;;
73382;SDS011;61600;48.126;11.542;2024-02-21T07:50:40;2.28;;;0.90;;
73382;SDS011;61600;48.126;11.542;2024-02-21T07:53:07;1.85;;;0.85;;
73382;SDS011;61600;48.126;11.542;2024-02-21T07:55:34;1.42;;;0.80;;
73382;SDS011;61600;48.126;11.542;2024-02-21T07:58:01;1.17;;;0.80;;
73382;SDS011;61600;48.126;11.542;2024-02-21T08:00:29;2.10;;;0.90;;
73382;SDS011;61600;48.126;11.542;2024-02-21T08:03:15;3.55;;;1.00;;
73382;SDS011;61600;48.126;11.542;2024-02-21T08:08:37;2.15;;;0.60;;
73382;SDS011;61600;48.126;11.542;2024-02-21T08:11:03;4.03;;;0.70;;
73382;SDS011;61600;48.126;11.542;2024-02-21T08:13:29;1.27;;;0.55;;
73382;SDS011;61600;48.126;11.542;2024-02-21T08:15:55;0.90;;;0.60;;
73382;SDS011;61600;48.126;11.542;2024-02-21T08:18:23;1.98;;;0.70;;
73382;SDS011;61600;48.126;11.542;2024-02-21T08:20:48;2.63;;;0.90;;
73382;SDS011;61600;48.126;11.542;2024-02-21T08:23:15;3.55;;;1.08;;
73382;SDS011;61600;48.126;11.542;2024-02-21T08:25:46;2.63;;;0.70;;
73382;SDS011;61600;48.126;11.542;2024-02-21T08:28:11;1.75;;;0.60;;
73382;SDS011;61600;48.126;11.542;2024-02-21T08:30:39;1.50;;;0.60;;
73382;SDS011;61600;48.126;11.542;2024-02-21T08:33:09;1.65;;;0.82;;
73382;SDS011;61600;48.126;11.542;2024-02-21T08:35:35;2.78;;;1.00;;
73382;SDS011;61600;48.126;11.542;2024-02-21T08:38:02;5.00;;;0.80;;
73382;SDS011;61600;48.126;11.542;2024-02-21T08:40:29;1.40;;;0.60;;
73382;SDS011;61600;48.126;11.542;2024-02-21T08:42:54;1.63;;;0.73;;
73382;SDS011;61600;48.126;11.542;2024-02-21T08:45:20;1.38;;;0.65;;
73382;SDS011;61600;48.126;11.542;2024-02-21T08:47:46;2.75;;;0.60;;
73382;SDS011;61600;48.126;11.542;2024-02-21T08:50:12;1.20;;;0.75;;
73382;SDS011;61600;48.126;11.542;2024-02-21T08:52:38;1.85;;;0.60;;
73382;SDS011;61600;48.126;11.542;2024-02-21T08:55:05;1.25;;;0.30;;
73382;SDS011;61600;48.126;11.542;2024-02-21T08:57:33;2.78;;;0.65;;
73382;SDS011;61600;48.126;11.542;2024-02-21T09:00:05;1.45;;;0.60;;
73382;SDS011;61600;48.126;11.542;2024-02-21T09:02:36;2.45;;;0.60;;
73382;SDS011;61600;48.126;11.542;2024-02-21T09:05:03;0.98;;;0.50;;
73382;SDS011;61600;48.126;11.542;2024-02-21T09:07:30;1.95;;;0.70;;
73382;SDS011;61600;48.126;11.542;2024-02-21T09:09:56;1.17;;;0.52;;
73382;SDS011;61600;48.126;11.542;2024-02-21T09:12:21;2.33;;;0.60;;
73382;SDS011;61600;48.126;11.542;2024-02-21T09:14:47;0.73;;;0.50;;
73382;SDS011;61600;48.126;11.542;2024-02-21T09:17:17;1.05;;;0.52;;
73382;SDS011;61600;48.126;11.542;2024-02-21T09:19:43;1.65;;;0.70;;
73382;SDS011;61600;48.126;11.542;2024-02-21T09:22:10;1.77;;;0.60;;
73382;SDS011;61600;48.126;11.542;2024-02-21T09:24:36;7.63;;;0.70;;
73382;SDS011;61600;48.126;11.542;2024-02-21T09:27:03;1.70;;;0.60;;
73382;SDS011;61600;48.126;11.542;2024-02-21T09:29:29;3.90;;;1.05;;
73382;SDS011;61600;48.126;11.542;2024-02-21T09:31:58;1.33;;;0.50;;
73382;SDS011;61600;48.126;11.542;2024-02-21T09:34:25;0.85;;;0.50;;
73382;SDS011;61600;48.126;11.542;2024-02-21T09:36:50;2.25;;;0.73;;
73382;SDS011;61600;48.126;11.542;2024-02-21T09:39:18;1.48;;;0.70;;
73382;SDS011;61600;48.126;11.542;2024-02-21T09:41:45;2.28;;;0.98;;
73382;SDS011;61600;48.126;11.542;2024-02-21T09:44:22;0.93;;;0.50;;
73382;SDS011;61600;48.126;11.542;2024-02-21T09:47:03;5.53;;;0.73;;
73382;SDS011;61600;48.126;11.542;2024-02-21T09:49:37;2.35;;;0.80;;
73382;SDS011;61600;48.126;11.542;2024-02-21T09:52:06;2.00;;;0.50;;
73382;SDS011;61600;48.126;11.542;2024-02-21T09:54:33;4.70;;;2.10;;
73382;SDS011;61600;48.126;11.542;2024-02-21T09:57:00;2.83;;;1.23;;
73382;SDS011;61600;48.126;11.542;2024-02-21T09:59:27;0.57;;;0.38;;
73382;SDS011;61600;48.126;11.542;2024-02-21T10:01:54;1.00;;;0.40;;
73382;SDS011;61600;48.126;11.542;2024-02-21T10:04:21;1.75;;;0.60;;
73382;SDS011;61600;48.126;11.542;2024-02-21T10:06:48;0.50;;;0.30;;
73382;SDS011;61600;48.126;11.542;2024-02-21T10:09:24;0.90;;;0.40;;
73382;SDS011;61600;48.126;11.542;2024-02-21T10:11:55;0.73;;;0.40;;
73382;SDS011;61600;48.126;11.542;2024-02-21T10:14:32;2.28;;;0.70;;
73382;SDS011;61600;48.126;11.542;2024-02-21T10:16:57;2.25;;;0.50;;
73382;SDS011;61600;48.126;11.542;2024-02-21T10:19:24;7.72;;;2.65;;
73382;SDS011;61600;48.126;11.542;2024-02-21T10:22:00;3.65;;;0.57;;
73382;SDS011;61600;48.126;11.542;2024-02-21T10:24:35;0.70;;;0.40;;
73382;SDS011;61600;48.126;11.542;2024-02-21T10:27:07;1.02;;;0.40;;
73382;SDS011;61600;48.126;11.542;2024-02-21T10:29:35;2.05;;;0.75;;
73382;SDS011;61600;48.126;11.542;2024-02-21T10:32:10;1.90;;;0.50;;
73382;SDS011;61600;48.126;11.542;2024-02-21T10:34:38;10.70;;;1.15;;
73382;SDS011;61600;48.126;11.542;2024-02-21T10:37:06;0.73;;;0.40;;
73382;SDS011;61600;48.126;11.542;2024-02-21T10:39:34;1.65;;;0.50;;
73382;SDS011;61600;48.126;11.542;2024-02-21T10:42:03;0.68;;;0.30;;
73382;SDS011;61600;48.126;11.542;2024-02-21T10:44:29;1.67;;;0.50;;
73382;SDS011;61600;48.126;11.542;2024-02-21T10:47:01;1.95;;;0.50;;
73382;SDS011;61600;48.126;11.542;2024-02-21T10:49:32;1.27;;;0.60;;
73382;SDS011;61600;48.126;11.542;2024-02-21T10:52:17;0.70;;;0.50;;
73382;SDS011;61600;48.126;11.542;2024-02-21T10:55:16;0.65;;;0.35;;
73382;SDS011;61600;48.126;11.542;2024-02-21T10:57:52;1.52;;;0.40;;
73382;SDS011;61600;48.126;11.542;2024-02-21T11:02:45;2.00;;;0.50;;
73382;SDS011;61600;48.126;11.542;2024-02-21T11:05:12;1.42;;;0.32;;
73382;SDS011;61600;48.126;11.542;2024-02-21T11:07:40;2.45;;;0.60;;
73382;SDS011;61600;48.126;11.542;2024-02-21T11:10:06;0.17;;;0.17;;
73382;SDS011;61600;48.126;11.542;2024-02-21T11:12:47;0.68;;;0.30;;
73382;SDS011;61600;48.126;11.542;2024-02-21T11:15:13;2.95;;;0.68;;
73382;SDS011;61600;48.126;11.542;2024-02-21T11:17:38;0.85;;;0.50;;
73382;SDS011;61600;48.126;11.542;2024-02-21T11:20:11;0.60;;;0.32;;
73382;SDS011;61600;48.126;11.542;2024-02-21T11:22:41;1.05;;;0.35;;
73382;SDS011;61600;48.126;11.542;2024-02-21T11:25:09;1.30;;;0.50;;
73382;SDS011;61600;48.126;11.542;2024-02-21T11:27:38;1.08;;;0.30;;
73382;SDS011;61600;48.126;11.542;2024-02-21T11:30:04;0.98;;;0.43;;
73382;SDS011;61600;48.126;11.542;2024-02-21T11:32:32;0.77;;;0.35;;
73382;SDS011;61600;48.126;11.542;2024-02-21T11:35:00;1.05;;;0.40;;
73382;SDS011;61600;48.126;11.542;2024-02-21T11:37:29;0.57;;;0.22;;
73382;SDS011;61600;48.126;11.542;2024-02-21T11:39:55;1.10;;;0.32;;
73382;SDS011;61600;48.126;11.542;2024-02-21T11:42:21;0.63;;;0.30;;
73382;SDS011;61600;48.126;11.542;2024-02-21T11:44:49;0.60;;;0.38;;
73382;SDS011;61600;48.126;11.542;2024-02-21T11:47:15;1.10;;;0.40;;
73382;SDS011;61600;48.126;11.542;2024-02-21T11:49:46;2.25;;;0.43;;
73382;SDS011;61600;48.126;11.542;2024-02-21T11:52:15;0.32;;;0.30;;
73382;SDS011;61600;48.126;11.542;2024-02-21T11:54:41;0.70;;;0.20;;
73382;SDS011;61600;48.126;11.542;2024-02-21T11:57:07;0.57;;;0.28;;
73382;SDS011;61600;48.126;11.542;2024-02-21T11:59:34;0.88;;;0.35;;
73382;SDS011;61600;48.126;11.542;2024-02-21T12:02:01;1.85;;;0.40;;
73382;SDS011;61600;48.126;11.542;2024-02-21T12:04:29;3.63;;;0.40;;
73382;SDS011;61600;48.126;11.542;2024-02-21T12:06:59;0.70;;;0.57;;
73382;SDS011;61600;48.126;11.542;2024-02-21T12:09:28;1.58;;;0.47;;
73382;SDS011;61600;48.126;11.542;2024-02-21T12:12:01;2.08;;;0.60;;
73382;SDS011;61600;48.126;11.542;2024-02-21T12:14:31;1.40;;;0.50;;
73382;SDS011;61600;48.126;11.542;2024-02-21T12:16:58;0.30;;;0.20;;
73382;SDS011;61600;48.126;11.542;2024-02-21T12:19:25;0.43;;;0.30;;
73382;SDS011;61600;48.126;11.542;2024-02-21T12:21:55;1.50;;;0.40;;
73382;SDS011;61600;48.126;11.542;2024-02-21T12:24:23;0.45;;;0.30;;
73382;SDS011;61600;48.126;11.542;2024-02-21T12:26:50;0.73;;;0.40;;
73382;SDS011;61600;48.126;11.542;2024-02-21T12:29:20;0.88;;;0.40;;
73382;SDS011;61600;48.126;11.542;2024-02-21T12:31:49;2.50;;;0.55;;
73382;SDS011;61600;48.126;11.542;2024-02-21T12:34:15;2.25;;;0.70;;
73382;SDS011;61600;48.126;11.542;2024-02-21T12:36:42;0.68;;;0.32;;
73382;SDS011;61600;48.126;11.542;2024-02-21T12:39:10;1.05;;;0.30;;
73382;SDS011;61600;48.126;11.542;2024-02-21T12:41:36;4.00;;;0.28;;
73382;SDS011;61600;48.126;11.542;2024-02-21T12:44:06;0.95;;;0.30;;
73382;SDS011;61600;48.126;11.542;2024-02-21T12:46:34;1.15;;;0.30;;
73382;SDS011;61600;48.126;11.542;2024-02-21T12:49:00;0.93;;;0.40;;
73382;SDS011;61600;48.126;11.542;2024-02-21T12:51:50;2.42;;;0.47;;
73382;SDS011;61600;48.126;11.542;2024-02-21T12:54:16;0.75;;;0.30;;
73382;SDS011;61600;48.126;11.542;2024-02-21T12:56:42;2.80;;;0.30;;
73382;SDS011;61600;48.126;11.542;2024-02-21T12:59:09;1.50;;;0.55;;
73382;SDS011;61600;48.126;11.542;2024-02-21T13:01:35;0.43;;;0.25;;
73382;SDS011;61600;48.126;11.542;2024-02-21T13:04:01;0.50;;;0.20;;
73382;SDS011;61600;48.126;11.542;2024-02-21T13:06:27;0.35;;;0.20;;
73382;SDS011;61600;48.126;11.542;2024-02-21T13:11:22;0.13;;;0.13;;
73382;SDS011;61600;48.126;11.542;2024-02-21T13:13:52;0.82;;;0.40;;
73382;SDS011;61600;48.126;11.542;2024-02-21T13:16:18;0.93;;;0.30;;
73382;SDS011;61600;48.126;11.542;2024-02-21T13:18:43;1.38;;;0.40;;
73382;SDS011;61600;48.126;11.542;2024-02-21T13:21:13;1.00;;;0.28;;
73382;SDS011;61600;48.126;11.542;2024-02-21T13:23:40;1.58;;;0.30;;
73382;SDS011;61600;48.126;11.542;2024-02-21T13:26:06;2.53;;;0.30;;
73382;SDS011;61600;48.126;11.542;2024-02-21T13:28:31;0.68;;;0.30;;
73382;SDS011;61600;48.126;11.542;2024-02-21T13:35:49;1.27;;;0.38;;
73382;SDS011;61600;48.126;11.542;2024-02-21T13:38:16;0.70;;;0.35;;
73382;SDS011;61600;48.126;11.542;2024-02-21T13:40:44;0.52;;;0.28;;
73382;SDS011;61600;48.126;11.542;2024-02-21T13:43:11;0.65;;;0.40;;
73382;SDS011;61600;48.126;11.542;2024-02-21T13:45:37;0.50;;;0.30;;
73382;SDS011;61600;48.126;11.542;2024-02-21T13:48:03;0.98;;;0.30;;
73382;SDS011;61600;48.126;11.542;2024-02-21T13:50:31;4.32;;;0.55;;
73382;SDS011;61600;48.126;11.542;2024-02-21T13:52:57;0.85;;;0.40;;
73382;SDS011;61600;48.126;11.542;2024-02-21T13:55:25;1.55;;;0.45;;
73382;SDS011;61600;48.126;11.542;2024-02-21T13:57:53;0.70;;;0.30;;
73382;SDS011;61600;48.126;11.542;2024-02-21T14:00:19;0.80;;;0.40;;
73382;SDS011;61600;48.126;11.542;2024-02-21T14:02:45;0.50;;;0.30;;
73382;SDS011;61600;48.126;11.542;2024-02-21T14:05:12;0.77;;;0.30;;
73382;SDS011;61600;48.126;11.542;2024-02-21T14:07:38;0.63;;;0.35;;
73382;SDS011;61600;48.126;11.542;2024-02-21T14:10:04;1.63;;;0.40;;
73382;SDS011;61600;48.126;11.542;2024-02-21T14:12:30;2.42;;;0.30;;
73382;SDS011;61600;48.126;11.542;2024-02-21T14:17:23;1.67;;;0.50;;
73382;SDS011;61600;48.126;11.542;2024-02-21T14:19:50;1.13;;;0.32;;
73382;SDS011;61600;48.126;11.542;2024-02-21T14:22:16;0.82;;;0.50;;
73382;SDS011;61600;48.126;11.542;2024-02-21T14:24:42;1.90;;;0.50;;
73382;SDS011;61600;48.126;11.542;2024-02-21T14:27:08;4.90;;;0.50;;
73382;SDS011;61600;48.126;11.542;2024-02-21T14:29:34;3.63;;;1.70;;
73382;SDS011;61600;48.126;11.542;2024-02-21T14:32:00;2.13;;;0.70;;
73382;SDS011;61600;48.126;11.542;2024-02-21T14:34:25;1.98;;;0.70;;
73382;SDS011;61600;48.126;11.542;2024-02-21T14:36:51;2.90;;;0.50;;
73382;SDS011;61600;48.126;11.542;2024-02-21T14:39:17;0.95;;;0.32;;
73382;SDS011;61600;48.126;11.542;2024-02-21T14:41:43;1.77;;;0.60;;
73382;SDS011;61600;48.126;11.542;2024-02-21T14:44:12;1.25;;;0.65;;
73382;SDS011;61600;48.126;11.542;2024-02-21T14:46:39;1.85;;;0.80;;
73382;SDS011;61600;48.126;11.542;2024-02-21T14:49:05;1.60;;;0.80;;
73382;SDS011;61600;48.126;11.542;2024-02-21T14:51:31;3.28;;;0.68;;